Flight Briefing for CPX12

Departure Arrival
Ted Stevens Anchorage International Airport (PANC)
Click to view FAA NOTAMS
Chek Lap Kok International (VHHH)
Click to view FAA NOTAMS
Departure Time Arrival Time
N/A N/A
Aircraft Distance
B747-400BCF 4414nm
Departure METAR Arrival METAR
PANC 181553Z 07005KT 10SM FEW060 BKN100 BKN210 04/01 A2939 RMK AO2 SLP953 T00390006 VHHH 181630Z 08006KT 050V130 8000 FEW024 22/19 Q1015 NOSIG
Suggested Route
NODLE R220 NANZA R220 NANAC R220 IXE Y88 NAKTU Y12 KEC Y24 KOSHI A1 BULAN A1 ELATO V522 ABBEY


View recent IFR Routes data
Notes



Charts and Procedures

Charts for PANC
No chart available
Charts for VHHH
No chart available

Windy.com Weather Map